Terminal Aerodrome Forecast
Issued by NWS Sioux Falls, SD

Home | Current Version | Previous Version | Text Only | Print | Product List | Glossary On
Versions: 1 2 3 4 5 6 7 8 9 10 11 12 13 14 15 16
000
FTUS43 KFSD 232320
TAFFSD
TAF
KFSD 232320Z 2400/2424 16013KT P6SM BKN070
     FM240100 16011KT P6SM SCT070
     FM240800 17009KT P6SM BKN060 WS015/19040KT
     FM241000 17009KT P6SM BKN060
     FM241100 17009KT P6SM VCTS BKN060CB
     FM241500 18012KT P6SM BKN060 BKN120
     FM241700 18014G21KT P6SM SCT050 SCT100
     FM242000 18015G22KT P6SM VCTS BKN050CB=

USA.gov is the U.S. government's official web portal to all federal, state and local government web resources and services.